createdAt,value
2023-04-08T00:01:44.432Z,7.63
2023-04-08T00:04:14.544Z,9.17
2023-04-08T00:06:42.304Z,8.33
2023-04-08T00:09:09.949Z,8.90
2023-04-08T00:11:37.916Z,8.47
2023-04-08T00:14:05.954Z,9.50
2023-04-08T00:16:33.666Z,9.20
2023-04-08T00:19:02.783Z,9.27
2023-04-08T00:21:31.867Z,9.10
2023-04-08T00:23:59.629Z,8.37
2023-04-08T00:26:27.398Z,8.87
2023-04-08T00:28:55.092Z,9.20
2023-04-08T00:31:22.897Z,8.67
2023-04-08T00:33:50.757Z,9.27
2023-04-08T00:36:19.761Z,9.00
2023-04-08T00:38:47.820Z,8.83
2023-04-08T00:41:15.805Z,8.10
2023-04-08T00:43:43.456Z,8.13
2023-04-08T00:46:11.610Z,8.10
2023-04-08T00:48:39.344Z,8.13
2023-04-08T00:51:07.205Z,8.33
2023-04-08T00:53:36.496Z,8.30
2023-04-08T00:56:04.281Z,8.10
2023-04-08T00:58:32.241Z,9.23
2023-04-08T01:01:04.467Z,9.00
2023-04-08T01:03:42.603Z,8.30
2023-04-08T01:06:16.684Z,8.13
2023-04-08T01:08:47.197Z,9.17
2023-04-08T01:11:15.529Z,8.70
2023-04-08T01:13:45.216Z,8.87
2023-04-08T01:16:16.705Z,8.50
2023-04-08T01:18:46.216Z,8.73
2023-04-08T01:21:17.434Z,9.43
2023-04-08T01:23:58.534Z,8.30
2023-04-08T01:26:27.700Z,9.30
2023-04-08T01:28:58.671Z,9.00
2023-04-08T01:31:27.955Z,9.20
2023-04-08T01:33:57.278Z,10.53
2023-04-08T01:36:26.776Z,10.07
2023-04-08T01:38:54.525Z,10.50
2023-04-08T01:41:22.695Z,10.00
2023-04-08T01:43:53.005Z,8.90
2023-04-08T01:46:21.733Z,10.20
2023-04-08T01:48:50.567Z,11.00
2023-04-08T01:51:18.980Z,11.57
2023-04-08T01:53:46.652Z,9.97
2023-04-08T01:56:16.922Z,10.57
2023-04-08T01:58:50.166Z,10.60
2023-04-08T02:01:23.106Z,12.27
2023-04-08T02:03:56.416Z,11.50
2023-04-08T02:06:24.537Z,10.60
2023-04-08T02:08:52.537Z,11.77
2023-04-08T02:11:21.334Z,11.23
2023-04-08T02:13:49.690Z,10.77
2023-04-08T02:16:24.929Z,12.50
2023-04-08T02:18:57.573Z,10.57
2023-04-08T02:21:32.975Z,11.50
2023-04-08T02:24:05.823Z,10.97
2023-04-08T02:26:35.400Z,11.07
2023-04-08T02:29:05.280Z,11.83
2023-04-08T02:31:35.404Z,11.93
2023-04-08T02:34:03.626Z,12.90
2023-04-08T02:36:34.044Z,12.20
2023-04-08T02:39:01.813Z,11.57
2023-04-08T02:41:29.816Z,12.50
2023-04-08T02:43:57.432Z,11.30
2023-04-08T02:46:25.273Z,11.70
2023-04-08T02:48:54.708Z,11.83
2023-04-08T02:51:22.386Z,10.90
2023-04-08T02:53:49.980Z,11.60
2023-04-08T02:56:17.649Z,12.43
2023-04-08T02:58:45.540Z,11.70
2023-04-08T03:01:13.191Z,11.83
2023-04-08T03:03:41.084Z,11.47
2023-04-08T03:06:10.330Z,11.80
2023-04-08T03:08:37.968Z,12.00
2023-04-08T03:11:05.693Z,11.93
2023-04-08T03:13:34.135Z,12.47
2023-04-08T03:16:01.875Z,12.13
2023-04-08T03:18:29.716Z,12.30
2023-04-08T03:20:57.579Z,12.73
2023-04-08T03:23:26.713Z,11.13
2023-04-08T03:25:54.342Z,12.40
2023-04-08T03:28:22.073Z,13.10
2023-04-08T03:30:50.691Z,12.40
2023-04-08T03:33:18.411Z,12.43
2023-04-08T03:35:46.079Z,12.17
2023-04-08T03:38:13.742Z,12.63
2023-04-08T03:40:42.759Z,11.73
2023-04-08T03:43:11.723Z,11.90
2023-04-08T03:45:39.629Z,12.57
2023-04-08T03:48:07.660Z,12.97
2023-04-08T03:50:35.345Z,10.90
2023-04-08T03:53:02.965Z,12.03
2023-04-08T03:55:30.609Z,12.97
2023-04-08T03:57:59.582Z,12.73
2023-04-08T04:00:27.294Z,11.70
2023-04-08T04:02:56.087Z,12.63
2023-04-08T04:05:23.795Z,13.20
2023-04-08T04:07:51.542Z,12.83
2023-04-08T04:10:19.290Z,13.27
2023-04-08T04:12:47.580Z,13.03
2023-04-08T04:15:16.700Z,12.83
2023-04-08T04:17:44.389Z,12.83
2023-04-08T04:20:13.119Z,12.47
2023-04-08T04:22:40.778Z,12.23
2023-04-08T04:25:09.666Z,12.90
2023-04-08T04:27:37.835Z,12.70
2023-04-08T04:30:07.263Z,11.60
2023-04-08T04:32:36.423Z,12.20
2023-04-08T04:35:04.555Z,12.50
2023-04-08T04:37:32.145Z,12.30
2023-04-08T04:39:59.801Z,13.17
2023-04-08T04:42:27.567Z,11.27
2023-04-08T04:44:55.561Z,12.67
2023-04-08T04:47:23.388Z,12.40
2023-04-08T04:49:52.596Z,12.57
2023-04-08T04:52:20.430Z,13.30
2023-04-08T04:54:48.079Z,12.57
2023-04-08T04:57:15.959Z,11.77
2023-04-08T04:59:43.696Z,11.80
2023-04-08T05:02:11.452Z,12.87
2023-04-08T05:04:39.219Z,12.67
2023-04-08T05:07:08.354Z,11.67
2023-04-08T05:09:36.340Z,12.87
2023-04-08T05:12:04.088Z,11.07
2023-04-08T05:14:31.921Z,11.83
2023-04-08T05:16:59.922Z,12.23
2023-04-08T05:19:27.579Z,12.03
2023-04-08T05:21:55.424Z,11.70
2023-04-08T05:24:24.449Z,10.83
2023-04-08T05:26:53.334Z,11.27
2023-04-08T05:29:21.950Z,11.37
2023-04-08T05:31:49.758Z,11.83
2023-04-08T05:34:22.563Z,11.40
2023-04-08T05:36:51.931Z,10.80
2023-04-08T05:39:20.244Z,11.33
2023-04-08T05:41:49.306Z,10.93
2023-04-08T05:44:17.094Z,10.87
2023-04-08T05:46:44.800Z,11.10
2023-04-08T05:49:13.085Z,10.00
2023-04-08T05:51:41.073Z,11.83
2023-04-08T05:54:08.756Z,11.00
2023-04-08T05:56:36.527Z,10.67
2023-04-08T05:59:05.672Z,10.20
2023-04-08T06:01:33.387Z,9.77
2023-04-08T06:04:01.220Z,10.10
2023-04-08T06:06:29.002Z,11.00
2023-04-08T06:08:56.628Z,10.40
2023-04-08T06:11:24.315Z,10.67
2023-04-08T06:13:52.012Z,12.53
2023-04-08T06:16:21.418Z,10.50
2023-04-08T06:18:49.889Z,11.13
2023-04-08T06:21:17.741Z,10.60
2023-04-08T06:23:45.705Z,9.30
2023-04-08T06:26:13.417Z,10.50
2023-04-08T06:28:41.133Z,9.70
2023-04-08T06:31:08.836Z,9.30
2023-04-08T06:33:37.927Z,9.77
2023-04-08T06:36:06.892Z,10.13
2023-04-08T06:38:34.774Z,9.43
2023-04-08T06:41:05.467Z,9.23
2023-04-08T06:43:33.575Z,8.77
2023-04-08T06:46:01.460Z,9.87
2023-04-08T06:48:30.564Z,9.70
2023-04-08T06:51:01.267Z,9.40
2023-04-08T06:53:31.217Z,9.53
2023-04-08T06:55:58.827Z,9.50
2023-04-08T06:58:26.468Z,9.73
2023-04-08T07:00:55.308Z,9.43
2023-04-08T07:03:23.106Z,9.53
2023-04-08T07:05:50.929Z,9.17
2023-04-08T07:08:20.659Z,10.30
2023-04-08T07:10:48.393Z,9.07
2023-04-08T07:13:18.544Z,8.90
2023-04-08T07:15:46.442Z,10.73
2023-04-08T07:18:14.359Z,10.13
2023-04-08T07:20:42.478Z,9.60
2023-04-08T07:23:10.268Z,10.90
2023-04-08T07:25:39.286Z,9.40
2023-04-08T07:28:06.988Z,9.40
2023-04-08T07:30:34.721Z,9.77
2023-04-08T07:33:02.457Z,10.03
2023-04-08T07:35:31.455Z,9.13
2023-04-08T07:37:59.142Z,9.37
2023-04-08T07:40:26.973Z,9.60
2023-04-08T07:42:56.129Z,9.83
2023-04-08T07:45:23.869Z,9.70
2023-04-08T07:47:51.607Z,9.77
2023-04-08T07:50:19.564Z,9.00
2023-04-08T07:52:47.165Z,9.63
2023-04-08T07:55:14.729Z,9.87
2023-04-08T07:57:42.483Z,9.73
2023-04-08T08:00:12.696Z,9.30
2023-04-08T08:02:40.497Z,10.27
2023-04-08T08:05:09.089Z,9.57
2023-04-08T08:07:36.999Z,9.43
2023-04-08T08:10:04.815Z,9.87
2023-04-08T08:12:32.509Z,10.00
2023-04-08T08:15:00.613Z,10.47
2023-04-08T08:17:31.027Z,10.40
2023-04-08T08:19:58.770Z,10.80
2023-04-08T08:22:27.032Z,9.73
2023-04-08T08:24:57.766Z,10.77
2023-04-08T08:27:25.902Z,10.27
2023-04-08T08:29:53.667Z,10.90
2023-04-08T08:32:21.360Z,10.23
2023-04-08T08:34:50.408Z,10.90
2023-04-08T08:37:18.014Z,11.67
2023-04-08T08:39:45.647Z,10.50
2023-04-08T08:42:21.521Z,10.77
2023-04-08T08:44:49.396Z,11.53
2023-04-08T08:47:17.335Z,11.17
2023-04-08T08:49:45.687Z,11.30
2023-04-08T08:52:18.387Z,11.30
2023-04-08T08:54:46.415Z,11.53
2023-04-08T08:57:20.462Z,11.63
2023-04-08T08:59:49.087Z,11.83
2023-04-08T09:02:28.451Z,11.40
2023-04-08T09:05:01.607Z,12.10
2023-04-08T09:07:31.956Z,11.17
2023-04-08T09:10:00.582Z,11.60
2023-04-08T09:12:29.152Z,11.37
2023-04-08T09:15:07.629Z,11.07
2023-04-08T09:17:36.506Z,10.90
2023-04-08T09:20:11.750Z,10.70
2023-04-08T09:23:01.403Z,11.10
2023-04-08T09:25:30.688Z,10.70
2023-04-08T09:27:58.341Z,10.67
2023-04-08T09:30:27.870Z,10.57
2023-04-08T09:32:56.794Z,11.53
2023-04-08T09:35:26.179Z,10.70
2023-04-08T09:37:53.974Z,11.30
2023-04-08T09:40:26.280Z,11.87
2023-04-08T09:42:56.249Z,11.47
2023-04-08T09:45:27.937Z,10.63
2023-04-08T09:48:01.507Z,11.10
2023-04-08T09:50:33.171Z,11.93
2023-04-08T09:53:11.759Z,12.67
2023-04-08T09:55:42.382Z,11.33
2023-04-08T09:58:16.598Z,11.73
2023-04-08T10:00:50.765Z,11.40
2023-04-08T10:03:29.224Z,12.47
2023-04-08T10:05:57.536Z,12.23
2023-04-08T10:08:28.613Z,11.00
2023-04-08T10:10:57.745Z,11.63
2023-04-08T10:13:28.496Z,12.53
2023-04-08T10:16:19.879Z,11.90
2023-04-08T10:18:47.600Z,12.50
2023-04-08T10:21:38.125Z,11.73
2023-04-08T10:24:09.982Z,12.13
2023-04-08T10:26:41.212Z,11.90
2023-04-08T10:29:36.635Z,12.07
2023-04-08T10:32:04.650Z,12.13
2023-04-08T10:34:33.107Z,11.23
2023-04-08T10:37:02.186Z,11.17
2023-04-08T10:39:30.013Z,11.83
2023-04-08T10:41:59.023Z,11.23
2023-04-08T10:44:27.679Z,11.50
2023-04-08T10:46:56.473Z,11.73
2023-04-08T10:49:24.348Z,12.43
2023-04-08T10:51:52.469Z,11.20
2023-04-08T10:54:20.314Z,11.17
2023-04-08T10:56:49.472Z,11.33
2023-04-08T10:59:28.122Z,10.83
2023-04-08T11:01:56.344Z,10.70
2023-04-08T11:04:24.424Z,11.27
2023-04-08T11:06:53.623Z,10.17
2023-04-08T11:09:21.328Z,10.17
2023-04-08T11:11:48.968Z,10.90
2023-04-08T11:14:21.830Z,10.60
2023-04-08T11:16:51.314Z,12.10
2023-04-08T11:19:19.408Z,11.03
2023-04-08T11:21:48.170Z,10.73
2023-04-08T11:24:16.981Z,10.53
2023-04-08T11:26:45.008Z,10.53
2023-04-08T11:29:16.925Z,10.70
2023-04-08T11:31:47.172Z,10.60
2023-04-08T11:34:23.786Z,10.80
2023-04-08T11:36:51.917Z,10.00
2023-04-08T11:39:23.402Z,10.07
2023-04-08T11:41:51.026Z,9.40
2023-04-08T11:44:18.732Z,8.93
2023-04-08T11:46:57.302Z,9.80
2023-04-08T11:49:25.303Z,8.93
2023-04-08T11:51:57.667Z,9.23
2023-04-08T11:54:29.527Z,8.80
2023-04-08T11:56:58.235Z,8.40
2023-04-08T11:59:28.238Z,9.20
2023-04-08T12:01:59.013Z,8.87
2023-04-08T12:04:26.969Z,8.67
2023-04-08T12:06:56.859Z,8.30
2023-04-08T12:09:25.859Z,9.40
2023-04-08T12:11:53.499Z,10.17
2023-04-08T12:14:21.943Z,9.87
2023-04-08T12:16:49.630Z,8.53
2023-04-08T12:19:18.605Z,8.10
2023-04-08T12:21:46.288Z,8.27
2023-04-08T12:24:13.998Z,7.10
2023-04-08T12:26:41.746Z,8.10
2023-04-08T12:29:11.653Z,7.30
2023-04-08T12:31:39.374Z,6.83
2023-04-08T12:34:07.442Z,6.60
2023-04-08T12:36:36.479Z,7.53
2023-04-08T12:39:04.235Z,6.90
2023-04-08T12:41:31.898Z,7.35
2023-04-08T12:43:59.524Z,7.53
2023-04-08T12:46:27.236Z,8.20
2023-04-08T12:49:03.406Z,7.93
2023-04-08T12:51:32.376Z,8.15
2023-04-08T12:54:02.041Z,8.48
2023-04-08T12:56:29.890Z,7.32
2023-04-08T12:58:57.718Z,7.40
2023-04-08T13:01:25.643Z,6.88
2023-04-08T13:03:53.557Z,7.82
2023-04-08T13:06:21.404Z,7.90
2023-04-08T13:08:51.649Z,8.13
2023-04-08T13:11:21.267Z,7.57
2023-04-08T13:13:49.595Z,7.70
2023-04-08T13:16:18.017Z,7.57
2023-04-08T13:18:45.745Z,7.40
2023-04-08T13:21:13.509Z,7.60
2023-04-08T13:23:41.223Z,7.03
2023-04-08T13:26:09.020Z,7.90
2023-04-08T13:28:49.777Z,8.33
2023-04-08T13:31:24.166Z,8.23
2023-04-08T13:33:52.932Z,7.73
2023-04-08T13:36:21.568Z,7.53
2023-04-08T13:38:49.449Z,7.80
2023-04-08T13:41:17.545Z,8.03
2023-04-08T13:43:46.576Z,8.57
2023-04-08T13:46:14.226Z,9.03
2023-04-08T13:48:42.465Z,8.17
2023-04-08T13:51:10.318Z,8.23
2023-04-08T13:53:37.929Z,7.83
2023-04-08T13:56:06.079Z,8.20
2023-04-08T13:58:33.759Z,7.57
2023-04-08T14:01:02.913Z,7.47
2023-04-08T14:03:30.741Z,8.40
2023-04-08T14:06:01.108Z,8.43
2023-04-08T14:08:29.433Z,8.83
2023-04-08T14:10:57.873Z,7.73
2023-04-08T14:13:25.616Z,7.70
2023-04-08T14:15:55.036Z,8.17
2023-04-08T14:18:26.120Z,7.50
2023-04-08T14:20:53.931Z,7.30
2023-04-08T14:23:21.765Z,6.70
2023-04-08T14:25:49.474Z,6.67
2023-04-08T14:28:17.152Z,6.43
2023-04-08T14:30:44.813Z,6.27
2023-04-08T14:33:13.108Z,6.20
2023-04-08T14:35:42.153Z,5.70
2023-04-08T14:38:09.852Z,5.87
2023-04-08T14:40:37.929Z,6.37
2023-04-08T14:43:05.845Z,5.93
2023-04-08T14:45:33.951Z,5.87
2023-04-08T14:48:02.119Z,5.10
2023-04-08T14:50:30.577Z,6.10
2023-04-08T14:52:59.714Z,5.93
2023-04-08T14:55:28.582Z,5.70
2023-04-08T14:57:56.881Z,5.13
2023-04-08T15:00:24.815Z,4.90
2023-04-08T15:02:52.618Z,5.10
2023-04-08T15:05:20.448Z,5.00
2023-04-08T15:07:48.961Z,5.20
2023-04-08T15:10:18.148Z,5.33
2023-04-08T15:12:46.759Z,5.20
2023-04-08T15:15:14.454Z,4.90
2023-04-08T15:17:42.221Z,5.17
2023-04-08T15:20:11.672Z,5.07
2023-04-08T15:22:39.416Z,5.20
2023-04-08T15:25:07.940Z,5.67
2023-04-08T15:27:37.564Z,4.47
2023-04-08T15:30:05.847Z,5.17
2023-04-08T15:32:33.986Z,4.53
2023-04-08T15:35:02.380Z,4.70
2023-04-08T15:37:30.182Z,5.13
2023-04-08T15:39:57.867Z,5.47
2023-04-08T15:42:25.536Z,5.50
2023-04-08T15:44:54.632Z,5.00
2023-04-08T15:47:23.066Z,5.07
2023-04-08T15:49:53.466Z,5.43
2023-04-08T15:52:21.330Z,5.40
2023-04-08T15:54:48.973Z,5.50
2023-04-08T15:57:16.574Z,5.33
2023-04-08T15:59:44.222Z,6.17
2023-04-08T16:02:13.319Z,6.70
2023-04-08T16:04:41.252Z,6.53
2023-04-08T16:07:08.960Z,6.77
2023-04-08T16:09:36.659Z,6.60
2023-04-08T16:12:04.513Z,7.70
2023-04-08T16:14:32.873Z,6.40
2023-04-08T16:17:00.570Z,6.00
2023-04-08T16:19:30.323Z,6.53
2023-04-08T16:21:57.928Z,6.13
2023-04-08T16:24:25.808Z,5.60
2023-04-08T16:26:53.498Z,5.90
2023-04-08T16:29:22.632Z,6.63
2023-04-08T16:31:52.261Z,6.00
2023-04-08T16:34:22.546Z,5.03
2023-04-08T16:36:51.861Z,5.37
2023-04-08T16:39:19.505Z,5.43
2023-04-08T16:41:47.722Z,5.43
2023-04-08T16:44:16.032Z,4.90
2023-04-08T16:46:43.950Z,5.50
2023-04-08T16:49:14.055Z,5.83
2023-04-08T16:51:42.684Z,5.77
2023-04-08T16:54:11.903Z,5.43
2023-04-08T16:56:44.143Z,5.33
2023-04-08T16:59:11.909Z,6.10
2023-04-08T17:01:39.571Z,5.63
2023-04-08T17:04:07.632Z,6.27
2023-04-08T17:06:36.201Z,7.03
2023-04-08T17:09:04.143Z,7.60
2023-04-08T17:11:33.402Z,6.80
2023-04-08T17:14:01.534Z,5.70
2023-04-08T17:16:29.229Z,6.47
2023-04-08T17:18:56.960Z,7.20
2023-04-08T17:21:24.600Z,6.40
2023-04-08T17:23:53.070Z,7.20
2023-04-08T17:26:23.621Z,6.90
2023-04-08T17:28:52.686Z,6.63
2023-04-08T17:31:20.687Z,6.77
2023-04-08T17:33:48.515Z,7.20
2023-04-08T17:36:17.443Z,7.10
2023-04-08T17:38:47.165Z,7.03
2023-04-08T17:41:21.535Z,6.83
2023-04-08T17:43:59.196Z,7.20
2023-04-08T17:46:27.498Z,7.33
2023-04-08T17:48:55.373Z,7.97
2023-04-08T17:51:23.513Z,7.77
2023-04-08T17:53:51.415Z,7.40
2023-04-08T17:56:19.241Z,8.20
2023-04-08T17:58:48.139Z,8.13
2023-04-08T18:01:17.415Z,7.47
2023-04-08T18:03:45.778Z,7.77
2023-04-08T18:06:13.479Z,8.40
2023-04-08T18:08:41.142Z,9.70
2023-04-08T18:11:08.925Z,10.37
2023-04-08T18:13:36.568Z,8.90
2023-04-08T18:16:04.358Z,9.80
2023-04-08T18:18:33.505Z,9.10
2023-04-08T18:21:01.207Z,7.83
2023-04-08T18:23:44.621Z,7.73
2023-04-08T18:26:13.264Z,8.20
2023-04-08T18:28:44.361Z,9.40
2023-04-08T18:31:12.771Z,9.47
2023-04-08T18:33:42.509Z,8.67
2023-04-08T18:36:15.438Z,8.43
2023-04-08T18:38:44.884Z,8.73
2023-04-08T18:41:31.942Z,8.97
2023-04-08T18:44:03.092Z,10.23
2023-04-08T18:46:43.454Z,8.93
2023-04-08T18:49:13.182Z,9.10
2023-04-08T18:51:58.872Z,10.93
2023-04-08T18:54:30.295Z,10.20
2023-04-08T18:57:01.643Z,9.80
2023-04-08T18:59:33.220Z,8.87
2023-04-08T19:02:01.507Z,10.13
2023-04-08T19:04:34.441Z,10.23
2023-04-08T19:09:41.474Z,10.07
2023-04-08T19:12:10.356Z,11.20
2023-04-08T19:14:39.433Z,10.83
2023-04-08T19:17:07.429Z,9.57
2023-04-08T19:19:36.877Z,10.83
2023-04-08T19:22:08.814Z,10.50
2023-04-08T19:24:40.626Z,11.57
2023-04-08T19:27:12.230Z,10.27
2023-04-08T19:29:40.753Z,10.57
2023-04-08T19:32:10.964Z,9.50
2023-04-08T19:34:40.516Z,8.87
2023-04-08T19:37:08.686Z,8.80
2023-04-08T19:39:40.457Z,8.13
2023-04-08T19:42:08.518Z,8.93
2023-04-08T19:44:39.625Z,7.50
2023-04-08T19:47:11.007Z,6.90
2023-04-08T19:49:40.442Z,6.70
2023-04-08T19:52:16.457Z,6.57
2023-04-08T19:54:51.547Z,6.80
2023-04-08T19:57:19.985Z,6.60
2023-04-08T19:59:52.567Z,6.30
2023-04-08T20:02:20.760Z,5.93
2023-04-08T20:04:51.059Z,6.33
2023-04-08T20:07:21.857Z,7.07
2023-04-08T20:09:55.791Z,7.63
2023-04-08T20:12:24.136Z,6.80
2023-04-08T20:14:52.991Z,5.73
2023-04-08T20:17:22.157Z,5.00
2023-04-08T20:19:51.345Z,5.40
2023-04-08T20:22:27.204Z,6.03
